AirNav   Air Wisconsin Up To $57,000 Bonus
 
 938 users online  

6AK2 Sleepers Strip Airport
Point Mackenzie, Alaska, USA

GOING TO POINT MACKENZIE?


FAA INFORMATION EFFECTIVE 16 JUNE 2022

Location

FAA Identifier: 6AK2
Lat/Long: 61-15-05.8600N 149-57-58.3300W
61-15.097667N 149-57.972167W
61.2516278,-149.9662028
(estimated)
Elevation: 88 ft. / 27 m (estimated)
Variation: 25E (1985)
From city: 1 mile N of POINT MACKENZIE, AK
Time zone: UTC -8 (UTC -9 during Standard Time)
Zip code: 99687

Airport Operations

Airport use: Private use. Permission required prior to landing
Activation date: 06/1971
Control tower: no
ARTCC: ANCHORAGE CENTER
FSS: KENAI FLIGHT SERVICE STATION [907-283-7211]
Attendance: UNATNDD
Wind indicator: yes
Segmented circle: no
Landing fee: yes

Airport Communications

CTAF: 122.9
WX ASOS at LHD (4 nm S): PHONE 907-245-5432
WX ASOS at MRI (4 nm SE): 124.25 (907-271-5277)
WX ASOS at ANC (5 nm S): PHONE 907-271-5278
WX ASOS at FRN (9 nm E): 134.25
WX AWOS-3P at BCV (16 nm NE): 135.55 (907-688-0826)

Airport Services

Airframe service: NONE
Powerplant service: NONE
Bottled oxygen: NONE
Bulk oxygen: NONE

Runway Information

Runway 6/24

Dimensions: 1600 x 60 ft. / 488 x 18 m
Surface: gravel
RUNWAY 6  RUNWAY 24
Latitude: 61-15.085667N61-15.109500N
Longitude: 149-58.243667W149-57.700833W
Elevation: 88.0 ft.88.0 ft.
Traffic pattern: leftright
Runway heading: 060 magnetic, 085 true240 magnetic, 265 true
Markings: nonenone
Runway end identifier lights: nono
Obstructions: trees bush, 200 ft. from runway, 8:1 slope to clear35 ft. house, 500 ft. from runway, 13:1 slope to clear

Airport Ownership and Management from official FAA records

Ownership: Privately-owned
Owner: K. SLEEPER
2006 W. 46TH AVE
ANCHORAGE, AK 99517
Phone 907-248-0008
Manager: K. SLEEPER
2006 W. 46TH AVE
ANCHORAGE, AK 99517
Phone 907-248-0008

Airport Operational Statistics

Aircraft operations: 110/year *
91% air taxi
9% transient general aviation
* for 12-month period ending 19 May 1976

Instrument Procedures

There are no published instrument procedures at 6AK2.

Some nearby airports with instrument procedures:

PAMR - Merrill Field Airport (4 nm SE)
PAED - Elmendorf Air Force Base (5 nm E)
PANC - Ted Stevens Anchorage International Airport (5 nm S)
PAFR - Bryant Army Airfield Heliport (9 nm E)
PAGQ - Big Lake Airport (18 nm N)
 
Loc | Ops | Rwys | IFR | FBO | Links
Com | Nav | Svcs | Stats | Notes

Crowley Maritime Corporation
 
Area around 6AK2 (Sleepers Strip Airport)
 
Road maps at: MapQuest Bing Google
 
Aerial photo
No photo
 
Sectional chart

 
Airport distance calculator
Flying to Sleepers Strip Airport? Find the distance to fly.

From to 6AK2

Sunrise and sunset
Times for 30-Jun-2022
 Local
(UTC-8)
 Zulu
(UTC)
Morning civil twilight++
Sunrise04:2712:27
Sunset23:4007:40
Evening civil twilight++

Current date and time
Zulu (UTC)  30-Jun-2022 12:05:28
Local (UTC-8)  30-Jun-2022 04:05:28
 
METAR
PAMR 
4nm SE 
301153Z 01004KT 5SM FU FEW100 16/11 A3015 RMK AO2 SLP210 T01560106 10183 20144 51007
PALH 
4nm S 
292122Z 31007KT 3SM HZ CLR 21/12 A3003 RMK AO2 T02060122
PAED 
5nm E 
301156Z 33004KT 6SM FU FEW100 15/11 A3015 RMK AO2A SLP205 T01450111 10176 20141 51009 $
PANC 
5nm S 
301153Z 00000KT 6SM FU FEW000 FEW100 16/10 A3015 RMK AO2 SLP210 T01610100 10194 20139 51006
PAFR 
9nm E 
301156Z AUTO 00000KT 10SM CLR 12/09 A3012 RMK AO2 SLP204 T01150092 10189 20110 50004 VISNO RWY35 CHINO RWY35 $
PABV 
16nm NE 
301156Z AUTO 11005KT 6SM HZ CLR 16/11 A3017 RMK AO2 SLP223 T01560106 10211 20150 51007
TAF
PAED 
5nm E 
300205Z 3002/0108 25009KT 9000 FU FEW050 FEW180 QNH3000INS WND VRB06KT AFT 3005 TEMPO 3003/3005 VCTS SCT050CB BECMG 3007/3008 VRB06KT 8000 FU FEW020 FEW045 SCT180 QNH3005INS TEMPO 3009/3015 6000 FU SCT020 BKN045 BECMG 3017/3018 25012KT 9000 FU FEW050 FEW180 QNH3008INS TX24/3003Z TN12/3013Z
PANC 
5nm S 
292104Z 2921/3024 21006KT 4SM FU SKC
NOTAMs
Click for the latest NOTAMs
NOTAMs are issued by the DoD/FAA and will open in a separate window not controlled by AirNav.

 

 
 

Would you like to see your business listed on this page?

 If your business provides an interesting product or service to pilots, flight crews, aircraft, or users of the Sleepers Strip Airport, you should consider listing it here.  To start the listing process, click on the button below
 
Add a business
 

Other Pages about Sleepers Strip Airport

Update a link
 
Copyright © AirNav, LLC. All rights reserved. Privacy Policy  Contact